| time (UTC) | temp F | wind direction | speed knots | gust knots | rain 1hr in | rain 24hr in | rain mn in | humidity % | barometer mb |
| 20260504194821 | 69 | 162 | 4.3 | 8.7 | 0.00 | 0.00 | 0.00 | 49 | 1014.2 |
| 20260504194316 | 69 | 168 | 4.3 | 9.6 | 0.00 | 0.00 | 0.00 | 46 | 1014.3 |
| 20260504193812 | 70 | 174 | 4.3 | 7.8 | 0.00 | 0.00 | 0.00 | 46 | 1013.9 |
| 20260504193310 | 70 | 170 | 7.8 | 8.7 | 0.00 | 0.00 | 0.00 | 48 | 1014.0 |
| 20260504192809 | 69 | 141 | 4.3 | 11.3 | 0.00 | 0.00 | 0.00 | 48 | 1014.1 |
| 20260504192306 | 70 | 159 | 1.7 | 11.3 | 0.00 | 0.00 | 0.00 | 47 | 1014.3 |
| 20260504191805 | 69 | 159 | 3.5 | 8.7 | 0.00 | 0.00 | 0.00 | 47 | 1014.4 |
| 20260504191301 | 70 | 180 | 5.2 | 13.9 | 0.00 | 0.00 | 0.00 | 47 | 1014.5 |
| 20260504190757 | 70 | 127 | 5.2 | 7.0 | 0.00 | 0.00 | 0.00 | 46 | 1014.4 |
| 20260504190253 | 70 | 188 | 5.2 | 8.7 | 0.00 | 0.00 | 0.00 | 46 | 1014.4 |
| 20260504185750 | 70 | 151 | 5.2 | 8.7 | 0.00 | 0.00 | 0.00 | 46 | 1014.6 |
| 20260504185247 | 69 | 179 | 5.2 | 13.0 | 0.00 | 0.00 | 0.00 | 47 | 1014.5 |
| 20260504184743 | 69 | 161 | 5.2 | 9.6 | 0.00 | 0.00 | 0.00 | 48 | 1014.7 |
| 20260504184239 | 69 | 131 | 2.6 | 6.1 | 0.00 | 0.00 | 0.00 | 48 | 1014.6 |
| 20260504183735 | 70 | 193 | 2.6 | 6.1 | 0.00 | 0.00 | 0.00 | 48 | 1014.7 |
| 20260504183232 | 70 | 109 | 2.6 | 7.0 | 0.00 | 0.00 | 0.00 | 48 | 1014.8 |
| 20260504182730 | 69 | 116 | 2.6 | 7.0 | 0.00 | 0.00 | 0.00 | 51 | 1014.9 |
| 20260504182227 | 69 | 158 | 4.3 | 6.1 | 0.00 | 0.00 | 0.00 | 49 | 1014.9 |
| 20260504181725 | 69 | 109 | 6.1 | 7.8 | 0.00 | 0.00 | 0.00 | 51 | 1015.1 |
| 20260504181222 | 70 | 162 | 3.5 | 7.0 | 0.00 | 0.00 | 0.00 | 50 | 1015.3 |
| 20260504180721 | 70 | 153 | 3.5 | 6.1 | 0.00 | 0.00 | 0.00 | 48 | 1015.3 |
| 20260504180219 | 69 | 181 | 4.3 | 9.6 | 0.00 | 0.00 | 0.00 | 49 | 1015.4 |
| 20260504175716 | 70 | 157 | 4.3 | 8.7 | 0.00 | 0.00 | 0.00 | 48 | 1015.3 |
| 20260504175213 | 71 | 195 | 3.5 | 5.2 | 0.00 | 0.00 | 0.00 | 47 | 1015.4 |
| 20260504174711 | 70 | 126 | 5.2 | 14.8 | 0.00 | 0.00 | 0.00 | 51 | 1015.5 |
| 20260504174209 | 72 | 174 | 2.6 | 5.2 | 0.00 | 0.00 | 0.00 | 36 | 1015.5 |
| 20260504173704 | 74 | 184 | 2.6 | 5.2 | 0.00 | 0.00 | 0.00 | 28 | 1015.6 |
| 20260504173202 | 72 | 119 | 6.1 | 7.8 | 0.00 | 0.00 | 0.00 | 38 | 1015.5 |
| 20260504172658 | 74 | 291 | 0.9 | 7.8 | 0.00 | 0.00 | 0.00 | 26 | 1015.8 |
| 20260504172155 | 73 | 168 | 1.7 | 5.2 | 0.00 | 0.00 | 0.00 | 28 | 1015.5 |
| 20260504171651 | 74 | 177 | 2.6 | 5.2 | 0.00 | 0.00 | 0.00 | 28 | 1015.6 |
| 20260504171149 | 74 | 165 | 2.6 | 6.1 | 0.00 | 0.00 | 0.00 | 28 | 1015.8 |
| 20260504170645 | 73 | 228 | 3.5 | 5.2 | 0.00 | 0.00 | 0.00 | 27 | 1015.8 |
| 20260504170143 | 73 | 161 | 2.6 | 5.2 | 0.00 | 0.00 | 0.00 | 27 | 1015.9 |
| 20260504151028 | 71 | 257 | 0.9 | 4.3 | 0.00 | 0.00 | 0.00 | 33 | 1017.1 |
| 20260504150525 | 69 | 201 | 2.6 | 6.1 | 0.00 | 0.00 | 0.00 | 34 | 1017.2 |
| 20260504140951 | 67 | 161 | 3.5 | 9.6 | 0.00 | 0.00 | 0.00 | 33 | 1017.6 |
| 20260504140447 | 67 | 160 | 6.1 | 7.8 | 0.00 | 0.00 | 0.00 | 33 | 1017.6 |
| 20260504130412 | 64 | 185 | 5.2 | 6.1 | 0.00 | 0.00 | 0.00 | 43 | 1018.1 |
| 20260504110259 | 53 | 162 | 2.6 | 5.2 | 0.00 | 0.00 | 0.00 | 66 | 1019.0 |
| 20260504100217 | 48 | 151 | 1.7 | 4.3 | 0.00 | 0.00 | 0.00 | 69 | 1018.8 |
| 20260504090140 | 49 | 196 | 1.7 | 4.3 | 0.00 | 0.00 | 0.00 | 66 | 1018.8 |
| 20260504081610 | 48 | 208 | 1.7 | 2.6 | 0.00 | 0.00 | 0.00 | 63 | 1018.5 |
| 20260504081106 | 48 | 117 | 1.7 | 1.7 | 0.00 | 0.00 | 0.00 | 63 | 1018.7 |
| 20260504080603 | 48 | 170 | 2.6 | 2.6 | 0.00 | 0.00 | 0.00 | 64 | 1018.7 |
| 20260504050415 | 48 | 128 | 1.7 | 1.7 | 0.00 | 0.00 | 0.00 | 52 | 1018.2 |
| 20260504045912 | 49 | 229 | 0.9 | 4.3 | 0.00 | 0.00 | 0.00 | 51 | 1017.9 |
| 20260504045408 | 48 | 215 | 0.0 | 1.7 | 0.00 | 0.00 | 0.00 | 52 | 1017.9 |
| 20260504044905 | 48 | 124 | 1.7 | 1.7 | 0.00 | 0.00 | 0.00 | 53 | 1017.9 |
| 20260504044402 | 48 | 122 | 2.6 | 3.5 | 0.00 | 0.00 | 0.00 | 53 | 1017.9 |
| 20260504043900 | 48 | 164 | 1.7 | 2.6 | 0.00 | 0.00 | 0.00 | 51 | 1017.8 |
| 20260504043356 | 48 | 173 | 0.0 | 2.6 | 0.00 | 0.00 | 0.00 | 52 | 1017.8 |
| 20260504042854 | 48 | 114 | 0.0 | 3.5 | 0.00 | 0.00 | 0.00 | 52 | 1017.6 |
| 20260504042350 | 48 | 167 | 2.6 | 3.5 | 0.00 | 0.00 | 0.00 | 51 | 1017.6 |
| 20260504041846 | 48 | 119 | 1.7 | 3.5 | 0.00 | 0.00 | 0.00 | 52 | 1017.6 |
| 20260504041343 | 48 | 117 | 0.9 | 1.7 | 0.00 | 0.00 | 0.00 | 51 | 1017.8 |
| 20260504040838 | 48 | 152 | 1.7 | 3.5 | 0.00 | 0.00 | 0.00 | 50 | 1017.5 |
| 20260504040337 | 47 | 115 | 1.7 | 2.6 | 0.00 | 0.00 | 0.00 | 52 | 1017.6 |
| 20260504035832 | 48 | 157 | 0.9 | 2.6 | 0.00 | 0.00 | 0.00 | 52 | 1017.6 |
| 20260504035330 | 48 | 148 | 0.9 | 1.7 | 0.00 | 0.00 | 0.00 | 51 | 1017.6 |
| 20260504034827 | 48 | 139 | 1.7 | 2.6 | 0.00 | 0.00 | 0.00 | 51 | 1017.6 |
| 20260504034324 | 48 | 135 | 1.7 | 1.7 | 0.00 | 0.00 | 0.00 | 51 | 1017.6 |
| 20260504033821 | 48 | 148 | 0.9 | 1.7 | 0.00 | 0.00 | 0.00 | 51 | 1017.4 |
| 20260504033319 | 48 | 145 | 0.9 | 1.7 | 0.00 | 0.00 | 0.00 | 51 | 1017.3 |
| 20260504032815 | 48 | 105 | 0.9 | 2.6 | 0.00 | 0.00 | 0.00 | 51 | 1017.4 |
| 20260504032313 | 48 | 127 | 1.7 | 2.6 | 0.00 | 0.00 | 0.00 | 50 | 1017.5 |
| 20260504031810 | 48 | 130 | 1.7 | 2.6 | 0.00 | 0.00 | 0.00 | 51 | 1017.3 |
| 20260504031307 | 48 | 121 | 1.7 | 1.7 | 0.00 | 0.00 | 0.00 | 52 | 1017.2 |
| 20260504030803 | 48 | 157 | 0.0 | 2.6 | 0.00 | 0.00 | 0.00 | 51 | 1017.3 |
| 20260504030300 | 48 | 112 | 1.7 | 1.7 | 0.00 | 0.00 | 0.00 | 52 | 1017.4 |
| 20260504025756 | 48 | 127 | 1.7 | 2.6 | 0.00 | 0.00 | 0.00 | 50 | 1017.4 |
| 20260504025253 | 47 | 117 | 0.0 | 1.7 | 0.00 | 0.00 | 0.00 | 52 | 1017.1 |
| 20260504024750 | 47 | 151 | 0.0 | 1.7 | 0.00 | 0.00 | 0.00 | 53 | 1017.2 |
| 20260504024247 | 47 | 151 | 0.9 | 1.7 | 0.00 | 0.00 | 0.00 | 52 | 1017.2 |
| 20260504023744 | 47 | 105 | 0.0 | 1.7 | 0.00 | 0.00 | 0.00 | 53 | 1017.1 |
| 20260504023240 | 48 | 157 | 0.0 | 0.9 | 0.00 | 0.00 | 0.00 | 52 | 1017.1 |
| 20260504022736 | 48 | 157 | 0.0 | 1.7 | 0.00 | 0.00 | 0.00 | 50 | 1017.2 |
| 20260504022232 | 48 | 157 | 0.0 | 1.7 | 0.00 | 0.00 | 0.00 | 51 | 1017.2 |
| 20260504021730 | 49 | 139 | 1.7 | 2.6 | 0.00 | 0.00 | 0.00 | 49 | 1017.3 |
| 20260504021227 | 49 | 140 | 0.9 | 2.6 | 0.00 | 0.00 | 0.00 | 50 | 1017.2 |
| 20260504020723 | 49 | 118 | 2.6 | 2.6 | 0.00 | 0.00 | 0.00 | 50 | 1017.4 |
| 20260504020220 | 49 | 218 | 1.7 | 2.6 | 0.00 | 0.00 | 0.00 | 50 | 1017.4 |
| 20260504015716 | 49 | 243 | 0.0 | 2.6 | 0.00 | 0.00 | 0.00 | 49 | 1017.4 |
| 20260504015213 | 49 | 146 | 0.0 | 2.6 | 0.00 | 0.00 | 0.00 | 49 | 1017.2 |
| 20260504014708 | 48 | 180 | 0.9 | 0.9 | 0.00 | 0.00 | 0.00 | 50 | 1017.1 |
| 20260504014205 | 49 | 171 | 1.7 | 2.6 | 0.00 | 0.00 | 0.00 | 50 | 1017.1 |
| 20260504013703 | 48 | 145 | 0.0 | 1.7 | 0.00 | 0.00 | 0.00 | 51 | 1017.1 |
| 20260504013200 | 48 | 126 | 0.0 | 1.7 | 0.00 | 0.00 | 0.00 | 51 | 1017.1 |
| 20260504012657 | 49 | 144 | 0.0 | 1.7 | 0.00 | 0.00 | 0.00 | 51 | 1017.0 |
| 20260504012155 | 49 | 135 | 0.0 | 2.6 | 0.00 | 0.00 | 0.00 | 50 | 1016.8 |
| 20260504011652 | 49 | 168 | 0.9 | 1.7 | 0.00 | 0.00 | 0.00 | 49 | 1016.9 |
| 20260504011148 | 49 | 131 | 0.0 | 1.7 | 0.00 | 0.00 | 0.00 | 50 | 1016.8 |
| 20260504010644 | 49 | 160 | 0.0 | 0.9 | 0.00 | 0.00 | 0.00 | 49 | 1016.6 |
| 20260504010139 | 49 | 157 | 0.9 | 1.7 | 0.00 | 0.00 | 0.00 | 49 | 1016.6 |
| 20260504005637 | 49 | 157 | 0.9 | 1.7 | 0.00 | 0.00 | 0.00 | 50 | 1016.6 |
| 20260504005133 | 49 | 160 | 0.9 | 1.7 | 0.00 | 0.00 | 0.00 | 50 | 1016.5 |
| 20260504004632 | 49 | 128 | 0.0 | 1.7 | 0.00 | 0.00 | 0.00 | 50 | 1016.4 |
| 20260504004129 | 49 | 120 | 1.7 | 1.7 | 0.00 | 0.00 | 0.00 | 50 | 1016.0 |
| 20260504003625 | 49 | 166 | 0.0 | 1.7 | 0.00 | 0.00 | 0.00 | 49 | 1016.3 |
| 20260504003121 | 50 | 160 | 0.9 | 1.7 | 0.00 | 0.00 | 0.00 | 49 | 1016.3 |
| 20260504002618 | 50 | 135 | 1.7 | 1.7 | 0.00 | 0.00 | 0.00 | 49 | 1016.3 |
| 20260504002116 | 50 | 146 | 1.7 | 1.7 | 0.00 | 0.00 | 0.00 | 48 | 1016.2 |
| 20260504001614 | 51 | 126 | 0.9 | 0.9 | 0.00 | 0.00 | 0.00 | 47 | 1016.1 |
| 20260504001109 | 51 | 145 | 0.0 | 1.7 | 0.00 | 0.00 | 0.00 | 47 | 1016.1 |
| 20260504000607 | 51 | 131 | 1.7 | 1.7 | 0.00 | 0.00 | 0.00 | 46 | 1015.8 |
| 20260504000104 | 52 | 145 | 0.9 | 1.7 | 0.00 | 0.00 | 0.00 | 45 | 1016.0 |
| 20260503235603 | 53 | 126 | 0.0 | 1.7 | 0.00 | 0.00 | 0.00 | 45 | 1015.8 |
| 20260503235059 | 53 | 157 | 0.0 | 1.7 | 0.00 | 0.00 | 0.00 | 42 | 1015.8 |
| 20260503234557 | 54 | 151 | 0.0 | 0.0 | 0.00 | 0.00 | 0.00 | 40 | 1015.7 |
| 20260503234055 | 55 | 133 | 2.6 | 2.6 | 0.00 | 0.00 | 0.00 | 39 | 1015.7 |
| 20260503233551 | 55 | 157 | 1.7 | 2.6 | 0.00 | 0.00 | 0.00 | 37 | 1015.6 |
| 20260503233047 | 56 | 90 | 0.0 | 2.6 | 0.00 | 0.00 | 0.00 | 36 | 1015.7 |
| 20260503232544 | 57 | 164 | 1.7 | 1.7 | 0.00 | 0.00 | 0.00 | 33 | 1015.4 |
| 20260503232042 | 57 | 125 | 2.6 | 2.6 | 0.00 | 0.00 | 0.00 | 33 | 1015.5 |
| 20260503231539 | 57 | 140 | 0.0 | 2.6 | 0.00 | 0.00 | 0.00 | 33 | 1015.5 |
| 20260503231036 | 57 | 126 | 0.0 | 2.6 | 0.00 | 0.00 | 0.00 | 32 | 1015.4 |
| 20260503230532 | 58 | 145 | 0.9 | 1.7 | 0.00 | 0.00 | 0.00 | 31 | 1015.5 |
| 20260503230030 | 58 | 195 | 0.0 | 3.5 | 0.00 | 0.00 | 0.00 | 31 | 1015.5 |
| 20260503225527 | 58 | 160 | 0.0 | 1.7 | 0.00 | 0.00 | 0.00 | 31 | 1015.6 |
| 20260503225022 | 58 | 188 | 2.6 | 2.6 | 0.00 | 0.00 | 0.00 | 29 | 1015.4 |
| 20260503224520 | 59 | 187 | 0.0 | 3.5 | 0.00 | 0.00 | 0.00 | 30 | 1015.4 |
| 20260503224017 | 59 | 177 | 0.0 | 3.5 | 0.00 | 0.00 | 0.00 | 31 | 1015.3 |
| 20260503223515 | 59 | 141 | 1.7 | 4.3 | 0.00 | 0.00 | 0.00 | 28 | 1015.5 |
| 20260503223010 | 59 | 204 | 1.7 | 5.2 | 0.00 | 0.00 | 0.00 | 28 | 1015.3 |
| 20260503222509 | 59 | 172 | 0.0 | 4.3 | 0.00 | 0.00 | 0.00 | 29 | 1015.2 |
| 20260503222007 | 59 | 178 | 3.5 | 7.0 | 0.00 | 0.00 | 0.00 | 28 | 1015.3 |
| 20260503221505 | 59 | 256 | 4.3 | 9.6 | 0.00 | 0.00 | 0.00 | 27 | 1015.3 |
| 20260503221002 | 60 | 135 | 1.7 | 5.2 | 0.00 | 0.00 | 0.00 | 27 | 1015.1 |
| 20260503220458 | 60 | 277 | 0.9 | 2.6 | 0.00 | 0.00 | 0.00 | 29 | 1015.2 |
| 20260503215954 | 60 | 254 | 2.6 | 5.2 | 0.00 | 0.00 | 0.00 | 26 | 1015.0 |
| 20260503215451 | 60 | 174 | 2.6 | 4.3 | 0.00 | 0.00 | 0.00 | 27 | 1015.3 |
| 20260503214949 | 61 | 273 | 2.6 | 5.2 | 0.00 | 0.00 | 0.00 | 26 | 1015.1 |
| 20260503214447 | 61 | 308 | 1.7 | 3.5 | 0.00 | 0.00 | 0.00 | 27 | 1015.1 |
| 20260503213944 | 62 | 176 | 1.7 | 9.6 | 0.00 | 0.00 | 0.00 | 26 | 1015.2 |
| 20260503213442 | 62 | 255 | 0.9 | 3.5 | 0.00 | 0.00 | 0.00 | 25 | 1014.9 |
| 20260503212938 | 62 | 182 | 2.6 | 7.8 | 0.00 | 0.00 | 0.00 | 25 | 1015.2 |
| 20260503212435 | 62 | 180 | 2.6 | 3.5 | 0.00 | 0.00 | 0.00 | 25 | 1015.0 |
| 20260503211933 | 62 | 334 | 1.7 | 2.6 | 0.00 | 0.00 | 0.00 | 26 | 1015.0 |
| 20260503211430 | 61 | 194 | 0.0 | 7.0 | 0.00 | 0.00 | 0.00 | 27 | 1014.9 |
| 20260503210924 | 62 | 225 | 1.7 | 6.1 | 0.00 | 0.00 | 0.00 | 27 | 1015.0 |
| 20260503210422 | 61 | 187 | 0.9 | 3.5 | 0.00 | 0.00 | 0.00 | 27 | 1015.1 |
| 20260503205917 | 62 | 239 | 1.7 | 6.1 | 0.00 | 0.00 | 0.00 | 25 | 1015.1 |
| 20260503205414 | 62 | 247 | 4.3 | 9.6 | 0.00 | 0.00 | 0.00 | 26 | 1015.0 |
| 20260503204910 | 62 | 165 | 0.9 | 4.3 | 0.00 | 0.00 | 0.00 | 25 | 1014.8 |
| 20260503204408 | 62 | 211 | 2.6 | 3.5 | 0.00 | 0.00 | 0.00 | 27 | 1014.9 |
| 20260503203905 | 61 | 180 | 2.6 | 8.7 | 0.00 | 0.00 | 0.00 | 26 | 1014.8 |
| 20260503203402 | 62 | 126 | 0.9 | 9.6 | 0.00 | 0.00 | 0.00 | 27 | 1014.9 |
| 20260503202859 | 62 | 299 | 2.6 | 7.8 | 0.00 | 0.00 | 0.00 | 25 | 1014.9 |
| 20260503202357 | 62 | 229 | 2.6 | 14.8 | 0.00 | 0.00 | 0.00 | 27 | 1014.9 |
| 20260503201855 | 62 | 168 | 0.0 | 5.2 | 0.00 | 0.00 | 0.00 | 26 | 1014.9 |
| 20260503201352 | 62 | 278 | 0.9 | 7.8 | 0.00 | 0.00 | 0.00 | 27 | 1014.9 |
| 20260503200849 | 62 | 151 | 2.6 | 4.3 | 0.00 | 0.00 | 0.00 | 25 | 1015.0 |
| 20260503200345 | 61 | 222 | 2.6 | 7.0 | 0.00 | 0.00 | 0.00 | 27 | 1015.1 |
| 20260503195842 | 62 | 244 | 6.1 | 7.0 | 0.00 | 0.00 | 0.00 | 26 | 1015.3 |
| 20260503195339 | 60 | 150 | 3.5 | 11.3 | 0.00 | 0.00 | 0.00 | 28 | 1015.1 |